createdAt,value
2023-07-22T00:00:00.947Z,95193.22
2023-07-22T00:02:29.015Z,95158.94
2023-07-22T00:04:57.143Z,95208.16
2023-07-22T00:07:25.159Z,95221.91
2023-07-22T00:09:53.183Z,95224.16
2023-07-22T00:12:21.200Z,95213.56
2023-07-22T00:14:49.186Z,95228.63
2023-07-22T00:17:18.751Z,95221.38
2023-07-22T00:19:46.837Z,95220.03
2023-07-22T00:22:14.822Z,95216.00
2023-07-22T00:24:42.871Z,95206.41
2023-07-22T00:27:11.569Z,95225.69
2023-07-22T00:29:39.593Z,95218.09
2023-07-22T00:32:09.924Z,95211.53
2023-07-22T00:34:39.329Z,95222.59
2023-07-22T00:37:07.426Z,95223.91
2023-07-22T00:39:35.359Z,95222.50
2023-07-22T00:42:03.312Z,95218.84
2023-07-22T00:44:31.677Z,95217.47
2023-07-22T00:47:00.437Z,95212.63
2023-07-22T00:49:29.964Z,95221.28
2023-07-22T00:52:02.855Z,95211.63
2023-07-22T00:54:32.073Z,95244.97
2023-07-22T00:57:00.405Z,95234.41
2023-07-22T00:59:29.191Z,95228.72
2023-07-22T01:01:57.258Z,95231.53
2023-07-22T01:04:26.433Z,95245.63
2023-07-22T01:06:55.324Z,95221.78
2023-07-22T01:09:24.693Z,95211.75
2023-07-22T01:11:52.666Z,95181.28
2023-07-22T01:14:20.640Z,95218.59
2023-07-22T01:16:48.837Z,95204.69
2023-07-22T01:19:20.006Z,95212.84
2023-07-22T01:21:50.361Z,95215.75
2023-07-22T01:24:20.104Z,95208.75
2023-07-22T01:26:49.017Z,95221.56
2023-07-22T01:29:17.059Z,95217.22
2023-07-22T01:31:49.317Z,95181.59
2023-07-22T01:34:18.168Z,95196.56
2023-07-22T01:36:48.608Z,95195.16
2023-07-22T01:39:16.944Z,95199.06
2023-07-22T01:41:46.676Z,95197.06
2023-07-22T01:44:14.704Z,95198.19
2023-07-22T01:46:43.274Z,95209.34
2023-07-22T01:49:13.792Z,95190.06
2023-07-22T01:51:42.561Z,95194.25
2023-07-22T01:54:11.463Z,95197.69
2023-07-22T01:56:39.937Z,95202.94
2023-07-22T01:59:11.323Z,95192.06
2023-07-22T02:01:39.833Z,95186.69
2023-07-22T02:04:08.102Z,95183.75
2023-07-22T02:06:36.572Z,95178.47
2023-07-22T02:09:09.730Z,95191.81
2023-07-22T02:11:38.050Z,95171.53
2023-07-22T02:14:08.340Z,95190.00
2023-07-22T02:16:38.974Z,95170.09
2023-07-22T02:19:07.669Z,95154.38
2023-07-22T02:21:35.776Z,95193.16
2023-07-22T02:24:03.817Z,95197.19
2023-07-22T02:26:31.921Z,95204.00
2023-07-22T02:28:59.930Z,95201.38
2023-07-22T02:31:28.059Z,95191.00
2023-07-22T02:33:57.493Z,95209.31
2023-07-22T02:36:25.775Z,95205.00
2023-07-22T02:38:54.150Z,95211.84
2023-07-22T02:41:22.975Z,95205.69
2023-07-22T02:43:51.165Z,95207.31
2023-07-22T02:46:19.306Z,95198.16
2023-07-22T02:48:47.475Z,95201.28
2023-07-22T02:51:16.881Z,95194.78
2023-07-22T02:53:45.815Z,95201.56
2023-07-22T02:56:14.239Z,95203.69
2023-07-22T02:58:43.103Z,95205.09
2023-07-22T03:01:11.592Z,95214.22
2023-07-22T03:03:41.170Z,95214.22
2023-07-22T03:06:10.928Z,95198.56
2023-07-22T03:08:40.414Z,95214.22
2023-07-22T03:11:08.561Z,95177.66
2023-07-22T03:13:36.637Z,95215.84
2023-07-22T03:16:05.933Z,95210.31
2023-07-22T03:18:34.147Z,95103.63
2023-07-22T03:21:02.235Z,95217.84
2023-07-22T03:23:30.345Z,95214.72
2023-07-22T03:25:59.718Z,95217.63
2023-07-22T03:28:28.084Z,95214.13
2023-07-22T03:30:56.152Z,95181.38
2023-07-22T03:33:24.208Z,95235.19
2023-07-22T03:35:52.285Z,95231.94
2023-07-22T03:38:20.332Z,95229.09
2023-07-22T03:40:48.699Z,95232.50
2023-07-22T03:43:18.436Z,95234.31
2023-07-22T03:45:46.573Z,95254.03
2023-07-22T03:48:14.764Z,95260.34
2023-07-22T03:50:42.830Z,95251.31
2023-07-22T03:53:10.862Z,95231.75
2023-07-22T03:55:38.882Z,95249.63
2023-07-22T03:58:06.832Z,95254.28
2023-07-22T04:00:36.281Z,95248.06
2023-07-22T04:03:04.653Z,95235.34
2023-07-22T04:05:32.791Z,95262.66
2023-07-22T04:08:00.783Z,95263.31
2023-07-22T04:10:28.728Z,95238.91
2023-07-22T04:12:56.801Z,95267.97
2023-07-22T04:15:24.924Z,95262.16
2023-07-22T04:17:55.155Z,95261.38
2023-07-22T04:20:25.495Z,95260.25
2023-07-22T04:22:53.492Z,95258.56
2023-07-22T04:25:21.624Z,95265.47
2023-07-22T04:27:49.809Z,95267.03
2023-07-22T04:30:21.801Z,95257.34
2023-07-22T04:32:50.487Z,95265.91
2023-07-22T04:35:20.175Z,95274.94
2023-07-22T04:37:48.627Z,95278.78
2023-07-22T04:40:19.458Z,95269.78
2023-07-22T04:42:47.708Z,95281.91
2023-07-22T04:45:15.797Z,95288.41
2023-07-22T04:47:45.690Z,95282.28
2023-07-22T04:50:14.012Z,95277.53
2023-07-22T04:52:44.795Z,95271.47
2023-07-22T04:55:13.310Z,95265.16
2023-07-22T04:57:42.437Z,95284.13
2023-07-22T05:00:13.253Z,95224.31
2023-07-22T05:02:41.467Z,95286.59
2023-07-22T05:05:10.721Z,95287.78
2023-07-22T05:07:38.785Z,95300.78
2023-07-22T05:10:13.338Z,95293.41
2023-07-22T05:12:41.783Z,95309.72
2023-07-22T05:15:12.202Z,95292.75
2023-07-22T05:17:40.594Z,95300.06
2023-07-22T05:20:11.279Z,95246.72
2023-07-22T05:22:39.650Z,95291.84
2023-07-22T05:25:10.848Z,95161.75
2023-07-22T05:27:39.325Z,95301.66
2023-07-22T05:30:16.084Z,95270.25
2023-07-22T05:32:48.418Z,95302.06
2023-07-22T05:35:16.495Z,95309.69
2023-07-22T05:37:44.433Z,95307.94
2023-07-22T05:40:14.101Z,95302.75
2023-07-22T05:42:42.385Z,95306.91
2023-07-22T05:45:14.876Z,95310.56
2023-07-22T05:47:43.079Z,95309.19
2023-07-22T05:50:11.783Z,95305.41
2023-07-22T05:52:40.325Z,95307.72
2023-07-22T05:55:08.814Z,95290.97
2023-07-22T05:57:38.612Z,95295.94
2023-07-22T06:00:09.981Z,95300.84
2023-07-22T06:02:38.649Z,95310.13
2023-07-22T06:05:07.254Z,95318.25
2023-07-22T06:07:35.439Z,95320.72
2023-07-22T06:10:03.952Z,95321.97
2023-07-22T06:12:32.270Z,95312.41
2023-07-22T06:15:02.162Z,95310.22
2023-07-22T06:17:30.249Z,95350.38
2023-07-22T06:19:58.617Z,95346.00
2023-07-22T06:22:26.692Z,95300.28
2023-07-22T06:24:54.869Z,95344.44
2023-07-22T06:27:23.251Z,95341.16
2023-07-22T06:29:51.279Z,95348.34
2023-07-22T06:32:20.858Z,95349.63
2023-07-22T06:34:48.880Z,95336.59
2023-07-22T06:37:16.893Z,95321.94
2023-07-22T06:39:44.921Z,95329.34
2023-07-22T06:42:12.853Z,95364.25
2023-07-22T06:44:41.204Z,95354.53
2023-07-22T06:47:09.431Z,95359.09
2023-07-22T06:49:38.978Z,95335.97
2023-07-22T06:52:08.537Z,95355.31
2023-07-22T06:54:37.287Z,95326.28
2023-07-22T06:57:07.391Z,95342.38
2023-07-22T06:59:35.486Z,95337.94
2023-07-22T07:02:03.533Z,95345.81
2023-07-22T07:04:31.618Z,95341.00
2023-07-22T07:07:01.444Z,95330.91
2023-07-22T07:09:47.868Z,95337.34
2023-07-22T07:12:15.962Z,95345.34
2023-07-22T07:14:44.451Z,95331.16
2023-07-22T07:17:12.610Z,95328.09
2023-07-22T07:19:40.648Z,95329.84
2023-07-22T07:22:10.338Z,95327.38
2023-07-22T07:24:38.532Z,95295.53
2023-07-22T07:27:07.340Z,95308.91
2023-07-22T07:29:51.942Z,95327.50
2023-07-22T07:32:21.680Z,95318.00
2023-07-22T07:34:49.858Z,95327.50
2023-07-22T07:37:19.438Z,95309.88
2023-07-22T07:39:47.578Z,95324.84
2023-07-22T07:42:15.616Z,95292.47
2023-07-22T07:44:44.790Z,95299.97
2023-07-22T07:47:12.885Z,95313.63
2023-07-22T07:49:41.750Z,95313.47
2023-07-22T07:52:09.894Z,95323.47
2023-07-22T07:54:39.409Z,95314.56
2023-07-22T07:57:08.538Z,95314.78
2023-07-22T07:59:39.390Z,95293.44
2023-07-22T08:02:10.851Z,95303.97
2023-07-22T08:04:38.915Z,95319.25
2023-07-22T08:07:09.025Z,95306.03
2023-07-22T08:09:37.431Z,95309.09
2023-07-22T08:12:07.572Z,95307.59
2023-07-22T08:14:35.841Z,95304.78
2023-07-22T08:17:05.129Z,95304.78
2023-07-22T08:19:33.267Z,95299.13
2023-07-22T08:22:01.722Z,95297.16
2023-07-22T08:24:29.857Z,95305.38
2023-07-22T08:26:57.952Z,95286.53
2023-07-22T08:29:27.815Z,95300.06
2023-07-22T08:31:55.922Z,95284.28
2023-07-22T08:34:24.127Z,95303.19
2023-07-22T08:36:53.871Z,95295.03
2023-07-22T08:39:21.881Z,95219.38
2023-07-22T08:41:51.382Z,95284.81
2023-07-22T08:44:24.801Z,95273.34
2023-07-22T08:46:58.532Z,95269.78
2023-07-22T08:49:27.923Z,95262.75
2023-07-22T08:51:57.992Z,95253.31
2023-07-22T08:54:26.449Z,95246.66
2023-07-22T08:56:55.906Z,95256.59
2023-07-22T08:59:24.340Z,95251.53
2023-07-22T09:01:55.098Z,95248.19
2023-07-22T09:04:23.227Z,95250.72
2023-07-22T09:06:51.969Z,95256.09
2023-07-22T09:09:20.397Z,95250.38
2023-07-22T09:11:49.510Z,95242.59
2023-07-22T09:14:35.821Z,95239.75
2023-07-22T09:17:07.481Z,95253.06
2023-07-22T09:19:35.511Z,95247.47
2023-07-22T09:22:03.860Z,95238.44
2023-07-22T09:24:31.964Z,95246.66
2023-07-22T09:27:01.724Z,95237.88
2023-07-22T09:29:37.538Z,95217.47
2023-07-22T09:32:07.738Z,95212.59
2023-07-22T09:34:35.800Z,95238.22
2023-07-22T09:37:05.046Z,95223.16
2023-07-22T09:39:33.465Z,95231.00
2023-07-22T09:42:03.230Z,95224.53
2023-07-22T09:44:34.115Z,95216.41
2023-07-22T09:47:09.077Z,95213.53
2023-07-22T09:49:42.675Z,95213.22
2023-07-22T09:52:14.683Z,95213.78
2023-07-22T09:54:50.011Z,95214.97
2023-07-22T09:57:19.058Z,95213.97
2023-07-22T09:59:50.017Z,95174.31
2023-07-22T10:02:21.451Z,95203.97
2023-07-22T10:04:53.437Z,95177.59
2023-07-22T10:07:22.920Z,95201.31
2023-07-22T10:09:51.899Z,95189.56
2023-07-22T10:12:19.991Z,95207.69
2023-07-22T10:14:48.831Z,95196.19
2023-07-22T10:17:18.075Z,95207.03
2023-07-22T10:19:47.797Z,95209.81
2023-07-22T10:22:16.406Z,95190.53
2023-07-22T10:24:47.705Z,95181.94
2023-07-22T10:27:19.084Z,95182.31
2023-07-22T10:29:48.187Z,95185.22
2023-07-22T10:32:18.375Z,95179.44
2023-07-22T10:34:47.821Z,95147.44
2023-07-22T10:37:15.923Z,95172.19
2023-07-22T10:39:43.980Z,95168.34
2023-07-22T10:42:25.739Z,95184.59
2023-07-22T10:44:54.241Z,95146.22
2023-07-22T10:47:34.251Z,95174.03
2023-07-22T10:50:15.752Z,95172.94
2023-07-22T10:52:45.998Z,95174.84
2023-07-22T10:55:18.646Z,95177.81
2023-07-22T10:57:54.379Z,95174.22
2023-07-22T11:00:23.411Z,95163.63
2023-07-22T11:03:13.771Z,95151.63
2023-07-22T11:05:57.207Z,95162.59
2023-07-22T11:08:39.011Z,95146.34
2023-07-22T11:11:07.462Z,95159.41
2023-07-22T11:13:40.757Z,95165.19
2023-07-22T11:16:13.208Z,95151.72
2023-07-22T11:18:42.459Z,95152.94
2023-07-22T11:21:12.497Z,95154.00
2023-07-22T11:23:40.496Z,95153.72
2023-07-22T11:26:08.512Z,95144.75
2023-07-22T11:28:36.587Z,95148.53
2023-07-22T11:31:04.669Z,95150.41
2023-07-22T11:33:40.986Z,95144.56
2023-07-22T11:36:09.064Z,95143.66
2023-07-22T11:38:39.948Z,95119.19
2023-07-22T11:41:08.118Z,95129.47
2023-07-22T11:43:36.794Z,95129.00
2023-07-22T11:46:07.498Z,95119.97
2023-07-22T11:48:35.645Z,95109.53
2023-07-22T11:51:03.949Z,95109.78
2023-07-22T11:53:31.966Z,95110.59
2023-07-22T11:56:02.153Z,95094.09
2023-07-22T11:58:31.529Z,95118.41
2023-07-22T12:01:08.836Z,95121.34
2023-07-22T12:03:37.192Z,95087.22
2023-07-22T12:06:05.768Z,95061.25
2023-07-22T12:08:34.598Z,95106.13
2023-07-22T12:11:05.229Z,95097.84
2023-07-22T12:13:38.741Z,95099.34
2023-07-22T12:16:08.257Z,95091.59
2023-07-22T12:18:46.364Z,95104.56
2023-07-22T12:21:14.805Z,95103.94
2023-07-22T12:23:44.141Z,95091.91
2023-07-22T12:26:13.510Z,95085.28
2023-07-22T12:28:41.725Z,95098.41
2023-07-22T12:31:10.824Z,95082.38
2023-07-22T12:33:39.010Z,95087.44
2023-07-22T12:36:07.564Z,95091.97
2023-07-22T12:38:35.779Z,95079.66
2023-07-22T12:41:04.286Z,95056.97
2023-07-22T12:43:34.611Z,95079.13
2023-07-22T12:46:02.669Z,95089.94
2023-07-22T12:48:31.512Z,95087.16
2023-07-22T12:50:59.735Z,95075.84
2023-07-22T12:53:28.564Z,95090.69
2023-07-22T12:55:57.771Z,95072.31
2023-07-22T12:58:25.956Z,95071.81
2023-07-22T13:00:55.461Z,95074.06
2023-07-22T13:03:23.676Z,95069.22
2023-07-22T13:05:51.765Z,95070.84
2023-07-22T13:08:19.785Z,95058.28
2023-07-22T13:10:48.489Z,95045.31
2023-07-22T13:13:16.638Z,94929.19
2023-07-22T13:15:44.710Z,95043.41
2023-07-22T13:18:14.914Z,95044.41
2023-07-22T13:20:43.076Z,95036.28
2023-07-22T13:23:11.297Z,95044.03
2023-07-22T13:25:39.406Z,95045.69
2023-07-22T13:28:10.279Z,95045.41
2023-07-22T13:30:38.396Z,94936.91
2023-07-22T13:33:06.481Z,95028.16
2023-07-22T13:35:35.919Z,95025.16
2023-07-22T13:38:03.991Z,95038.97
2023-07-22T13:40:32.101Z,95031.56
2023-07-22T13:43:00.231Z,95020.91
2023-07-22T13:45:28.844Z,95003.56
2023-07-22T13:47:57.029Z,95026.56
2023-07-22T13:50:25.228Z,95028.94
2023-07-22T13:52:54.715Z,95005.13
2023-07-22T13:55:22.917Z,95027.56
2023-07-22T13:57:50.920Z,95018.56
2023-07-22T14:00:19.497Z,94914.75
2023-07-22T14:02:47.727Z,95013.25
2023-07-22T14:05:15.811Z,95001.50
2023-07-22T14:07:43.824Z,94997.97
2023-07-22T14:10:13.621Z,95011.50
2023-07-22T14:12:41.683Z,95009.13
2023-07-22T14:15:11.384Z,95003.53
2023-07-22T14:17:40.134Z,95015.34
2023-07-22T14:20:09.242Z,95022.78
2023-07-22T14:22:37.302Z,95020.22
2023-07-22T14:25:06.043Z,95011.81
2023-07-22T14:27:36.093Z,95017.25
2023-07-22T14:30:05.318Z,95032.31
2023-07-22T14:32:33.558Z,95013.88
2023-07-22T14:35:01.728Z,95041.47
2023-07-22T14:37:30.207Z,95013.81
2023-07-22T14:39:58.243Z,95042.44
2023-07-22T14:42:26.322Z,95038.06
2023-07-22T14:44:55.787Z,95040.09
2023-07-22T14:47:23.901Z,95005.63
2023-07-22T14:49:53.494Z,95039.88
2023-07-22T14:52:21.884Z,95020.44
2023-07-22T14:54:50.258Z,95027.59
2023-07-22T14:57:19.397Z,95014.28
2023-07-22T14:59:49.753Z,95022.53
2023-07-22T15:02:19.354Z,95008.72
2023-07-22T15:04:47.349Z,94988.56
2023-07-22T15:07:15.510Z,95031.81
2023-07-22T15:09:43.588Z,95005.19
2023-07-22T15:12:11.662Z,95022.84
2023-07-22T15:14:41.914Z,95029.75
2023-07-22T15:19:58.498Z,95029.25
2023-07-22T15:22:32.829Z,94995.22
2023-07-22T15:25:03.595Z,95039.50
2023-07-22T15:27:31.598Z,95035.91
2023-07-22T15:29:59.630Z,95024.66
2023-07-22T15:32:28.309Z,95030.03
2023-07-22T15:34:57.783Z,95012.38
2023-07-22T15:37:26.047Z,94991.91
2023-07-22T15:39:54.198Z,95042.06
2023-07-22T15:42:22.214Z,95037.97
2023-07-22T15:44:50.325Z,95042.81
2023-07-22T15:47:18.808Z,95037.97
2023-07-22T15:49:47.016Z,95018.25
2023-07-22T15:52:16.396Z,95028.00
2023-07-22T15:54:47.571Z,95024.16
2023-07-22T15:57:17.986Z,95010.56
2023-07-22T15:59:47.967Z,95025.09
2023-07-22T16:02:16.446Z,94992.28
2023-07-22T16:04:44.809Z,95028.66
2023-07-22T16:07:12.868Z,95027.06
2023-07-22T16:09:42.529Z,95034.69
2023-07-22T16:12:11.220Z,95013.97
2023-07-22T16:14:39.510Z,95011.91
2023-07-22T16:17:07.911Z,94993.75
2023-07-22T16:19:36.122Z,94985.81
2023-07-22T16:22:04.296Z,95016.47
2023-07-22T16:24:32.445Z,95008.69
2023-07-22T16:27:02.237Z,94998.97
2023-07-22T16:29:30.238Z,94973.19
2023-07-22T16:31:58.343Z,94975.69
2023-07-22T16:34:26.587Z,95013.25
2023-07-22T16:36:54.679Z,94988.41
2023-07-22T16:39:24.052Z,94999.44
2023-07-22T16:41:52.458Z,94988.75
2023-07-22T16:44:23.690Z,94991.22
2023-07-22T16:46:51.791Z,95013.75
2023-07-22T16:49:19.864Z,95019.38
2023-07-22T16:51:48.337Z,95032.00
2023-07-22T16:54:16.410Z,95023.63
2023-07-22T16:56:44.482Z,95045.22
2023-07-22T16:59:14.167Z,95046.22
2023-07-22T17:01:43.720Z,95027.97
2023-07-22T17:04:12.217Z,95056.13
2023-07-22T17:06:40.809Z,95061.44
2023-07-22T17:09:09.334Z,95068.28
2023-07-22T17:11:37.389Z,94971.38
2023-07-22T17:14:05.471Z,95067.16
2023-07-22T17:16:33.484Z,95066.88
2023-07-22T17:19:03.153Z,95062.53
2023-07-22T17:21:31.705Z,95071.47
2023-07-22T17:23:59.668Z,95078.53
2023-07-22T17:26:27.714Z,95083.69
2023-07-22T17:28:55.824Z,95082.13
2023-07-22T17:31:24.196Z,95061.31
2023-07-22T17:33:52.308Z,95057.16
2023-07-22T17:36:21.775Z,95052.16
2023-07-22T17:38:49.977Z,95053.81
2023-07-22T17:41:18.211Z,95061.25
2023-07-22T17:43:46.211Z,95068.09
2023-07-22T17:46:14.456Z,95057.88
2023-07-22T17:48:42.475Z,95094.91
2023-07-22T17:51:10.440Z,95101.00
2023-07-22T17:53:40.250Z,95108.41
2023-07-22T17:56:08.370Z,95113.69
2023-07-22T17:58:36.356Z,95117.66
2023-07-22T18:01:04.719Z,95108.38
2023-07-22T18:03:33.279Z,95118.28
2023-07-22T18:06:01.301Z,95114.16
2023-07-22T18:08:29.304Z,95120.03
2023-07-22T18:10:59.006Z,95125.06
2023-07-22T18:13:27.076Z,95117.19
2023-07-22T18:15:55.111Z,95121.03
2023-07-22T18:18:23.300Z,95124.81
2023-07-22T18:20:51.276Z,95124.06
2023-07-22T18:23:19.271Z,95128.09
2023-07-22T18:25:47.225Z,95075.44
2023-07-22T18:28:16.599Z,95141.31
2023-07-22T18:30:44.638Z,95131.72
2023-07-22T18:33:12.761Z,95152.75
2023-07-22T18:35:40.854Z,95151.56
2023-07-22T18:38:09.225Z,95157.78
2023-07-22T18:40:37.242Z,95155.31
2023-07-22T18:43:05.400Z,95163.25
2023-07-22T18:45:34.867Z,95166.63
2023-07-22T18:48:03.937Z,95164.66
2023-07-22T18:50:33.692Z,95081.69
2023-07-22T18:53:01.737Z,95171.59
2023-07-22T18:55:29.781Z,95154.28
2023-07-22T18:57:57.846Z,95160.31
2023-07-22T19:00:28.299Z,95173.75
2023-07-22T19:02:58.612Z,95154.13
2023-07-22T19:05:26.716Z,95125.63
2023-07-22T19:07:54.879Z,95161.53
2023-07-22T19:10:22.953Z,95169.28
2023-07-22T19:12:51.015Z,95163.41
2023-07-22T19:15:21.132Z,95164.63
2023-07-22T19:17:49.461Z,95158.44
2023-07-22T19:20:19.211Z,95157.66
2023-07-22T19:22:47.462Z,95131.50
2023-07-22T19:25:15.617Z,95154.72
2023-07-22T19:27:43.745Z,95157.16
2023-07-22T19:30:14.361Z,95150.66
2023-07-22T19:32:42.469Z,95165.38
2023-07-22T19:35:10.853Z,95172.63
2023-07-22T19:37:40.295Z,95169.22
2023-07-22T19:40:10.055Z,95155.28
2023-07-22T19:42:38.048Z,95169.06
2023-07-22T19:45:06.953Z,95171.97
2023-07-22T19:47:35.279Z,95155.25
2023-07-22T19:50:03.466Z,95183.56
2023-07-22T19:52:31.498Z,95190.03
2023-07-22T19:55:00.896Z,95182.16
2023-07-22T19:57:28.986Z,95181.06
2023-07-22T19:59:57.786Z,95186.09
2023-07-22T20:02:26.030Z,95195.09
2023-07-22T20:04:54.317Z,95194.75
2023-07-22T20:07:22.350Z,95199.34
2023-07-22T20:09:50.373Z,95172.38
2023-07-22T20:12:19.762Z,95203.94
2023-07-22T20:14:47.862Z,95206.72
2023-07-22T20:17:15.884Z,95159.16
2023-07-22T20:19:43.940Z,95197.69
2023-07-22T20:22:12.449Z,95160.72
2023-07-22T20:24:40.763Z,95222.84
2023-07-22T20:27:08.860Z,95222.66
2023-07-22T20:29:38.322Z,95199.91
2023-07-22T20:32:12.493Z,95208.63
2023-07-22T20:34:47.584Z,95208.47
2023-07-22T20:37:15.613Z,95217.03
2023-07-22T20:39:43.620Z,95221.47
2023-07-22T20:42:11.693Z,95220.44
2023-07-22T20:44:41.071Z,95197.56
2023-07-22T20:47:09.148Z,95200.19
2023-07-22T20:49:37.190Z,95146.50
2023-07-22T20:52:05.875Z,95236.84
2023-07-22T20:54:33.991Z,95240.53
2023-07-22T20:57:02.017Z,95229.56
2023-07-22T20:59:29.961Z,95231.63
2023-07-22T21:01:59.407Z,95222.13
2023-07-22T21:04:27.432Z,95225.44
2023-07-22T21:06:55.422Z,95222.56
2023-07-22T21:09:23.437Z,95226.69
2023-07-22T21:11:51.435Z,95221.91
2023-07-22T21:14:19.428Z,95210.56
2023-07-22T21:16:47.472Z,95225.66
2023-07-22T21:19:16.882Z,95214.97
2023-07-22T21:21:46.179Z,95210.31
2023-07-22T21:24:14.615Z,95223.94
2023-07-22T21:26:42.642Z,95219.44
2023-07-22T21:29:10.608Z,95211.72
2023-07-22T21:31:38.616Z,95226.59
2023-07-22T21:34:15.111Z,95197.47
2023-07-22T21:36:45.104Z,95225.84
2023-07-22T21:39:13.131Z,95227.84
2023-07-22T21:41:41.398Z,95230.06
2023-07-22T21:44:09.597Z,95237.19
2023-07-22T21:46:40.286Z,95211.41
2023-07-22T21:49:09.487Z,95203.25
2023-07-22T21:51:39.193Z,95208.00
2023-07-22T21:54:08.597Z,95202.69
2023-07-22T21:56:36.698Z,95223.84
2023-07-22T21:59:04.793Z,95202.00
2023-07-22T22:01:32.943Z,95212.00
2023-07-22T22:04:01.006Z,95177.72
2023-07-22T22:06:28.973Z,95217.00
2023-07-22T22:08:57.106Z,95177.75
2023-07-22T22:11:26.735Z,95222.56
2023-07-22T22:13:54.933Z,95224.63
2023-07-22T22:16:22.991Z,95232.50
2023-07-22T22:18:51.027Z,95231.84
2023-07-22T22:21:19.036Z,95218.22
2023-07-22T22:23:47.026Z,95247.09
2023-07-22T22:26:15.119Z,95224.53
2023-07-22T22:28:44.475Z,95225.97
2023-07-22T22:31:12.595Z,95232.63
2023-07-22T22:33:40.644Z,95233.72
2023-07-22T22:36:08.797Z,95237.97
2023-07-22T22:38:36.844Z,95238.63
2023-07-22T22:41:05.096Z,95241.06
2023-07-22T22:43:33.183Z,95250.59
2023-07-22T22:46:02.499Z,95238.28
2023-07-22T22:48:30.482Z,95252.13
2023-07-22T22:50:58.485Z,95259.41
2023-07-22T22:53:26.492Z,95248.53
2023-07-22T22:55:54.485Z,95233.38
2023-07-22T22:58:22.866Z,95241.47
2023-07-22T23:00:50.881Z,95228.16
2023-07-22T23:03:20.328Z,95266.97
2023-07-22T23:05:48.369Z,95281.38
2023-07-22T23:08:16.477Z,95275.84
2023-07-22T23:10:47.513Z,95257.34
2023-07-22T23:13:15.579Z,95279.31
2023-07-22T23:15:43.778Z,95240.25
2023-07-22T23:18:11.774Z,95275.78
2023-07-22T23:20:41.155Z,95279.34
2023-07-22T23:23:09.175Z,95280.19
2023-07-22T23:25:37.195Z,95290.22
2023-07-22T23:28:05.267Z,95289.38
2023-07-22T23:30:33.211Z,95297.44
2023-07-22T23:33:01.243Z,95288.97
2023-07-22T23:35:29.239Z,95303.69
2023-07-22T23:37:58.736Z,95299.91
2023-07-22T23:40:26.714Z,95290.53
2023-07-22T23:42:54.814Z,95246.66
2023-07-22T23:45:22.765Z,95270.69
2023-07-22T23:47:50.908Z,95272.59
2023-07-22T23:50:19.065Z,95279.66
2023-07-22T23:52:47.066Z,95280.03
2023-07-22T23:55:16.612Z,95273.78
2023-07-22T23:57:44.615Z,95274.06
